Ina Theresa — V7UJ2 — position and weather

sailwx.info

Track history (hours):
 
Tides and Currents Weather Stations Pressure Air Temp Water Temp Dewpoint Dewpoint Depression Visibility Wind Speed Wind Dir Waves Ship Positions

Ina Theresa

Last reported at 2017-Aug-22 02:03 UTC. Time now 2017-Aug-23 19:38 UTC.
Position N 30°01' E 122°51'.

Length 122 m; draft 8.8 m.

Type: Ship. MMSI: 538004548.

Date/timePositionNaut miles runAvg speedWind from/ knotsBaromVisibWave heightAir tempDewpointWater temp
2017-Aug-22 02:03N 30°01' E 122°51'217.1
2017-Aug-22 01:56N 30°00' E 122°48'916.8
2017-Aug-22 01:23N 29°54' E 122°41'718.1
2017-Aug-22 00:59N 29°47' E 122°37'816.2
2017-Aug-22 00:30N 29°41' E 122°32'815.5
2017-Aug-22 00:00N 29°42' E 122°23'612.6
2017-Aug-21 23:30N 29°46' E 122°17'4 8.6
2017-Aug-21 22:59N 29°49' E 122°14'3 6.5
2017-Aug-21 22:30N 29°50' E 122°10'611.5
2017-Aug-21 22:00N 29°48' E 122°04'4 8.3
2017-Aug-21 21:30N 29°46' E 121°60'0 0.0
2017-Aug-21 20:58N 29°46' E 121°60'0 0.0
2017-Aug-21 20:23N 29°46' E 121°60'0 0.0
2017-Aug-21 19:58N 29°46' E 121°60'0 0.0
2017-Aug-21 19:28N 29°46' E 121°60'0 0.0
2017-Aug-21 18:58N 29°46' E 121°60'0 0.0
2017-Aug-21 18:28N 29°46' E 121°60'0 0.0
2017-Aug-21 17:58N 29°46' E 121°60'0 0.0
2017-Aug-21 17:22N 29°46' E 121°60'0 0.0
2017-Aug-21 16:58N 29°46' E 121°60'0 0.0
2017-Aug-21 16:28N 29°46' E 121°60'0 0.0
2017-Aug-21 15:58N 29°46' E 121°60'0 0.0
2017-Aug-21 15:13N 29°46' E 121°60'0 0.0
2017-Aug-21 14:43N 29°46' E 121°60'0 0.0
2017-Aug-21 14:28N 29°46' E 121°60'0 0.0
2017-Aug-21 13:58N 29°46' E 121°60'0 0.0
2017-Aug-21 13:25N 29°46' E 121°60'0 0.0
2017-Aug-21 12:58N 29°46' E 121°60'0 0.0
2017-Aug-21 12:28N 29°46' E 121°60'0 0.0
2017-Aug-21 11:58N 29°46' E 121°60'0 0.0
2017-Aug-21 11:28N 29°46' E 121°60'0 0.0
2017-Aug-21 10:58N 29°46' E 121°60'0 0.0
2017-Aug-21 10:28N 29°46' E 121°60'0 0.0
2017-Aug-21 09:52N 29°46' E 121°60'0 0.0
2017-Aug-21 09:28N 29°46' E 121°60'0 0.0
2017-Aug-21 08:49N 29°46' E 121°60'0 0.0
2017-Aug-21 08:13N 29°46' E 121°60'0 0.0
2017-Aug-21 07:58N 29°46' E 121°60'0 0.1
2017-Aug-21 07:30N 29°46' E 122°00'3 6.4
2017-Aug-21 07:00N 29°47' E 122°03'510.2
2017-Aug-21 06:31N 29°47' E 122°09'510.5
2017-Aug-21 06:00N 29°44' E 122°14'510.4
2017-Aug-21 05:29N 29°42' E 122°20'713.5
2017-Aug-21 05:00N 29°41' E 122°27'815.4
2017-Aug-21 04:30N 29°43' E 122°36'816.6
2017-Aug-21 04:00N 29°51' E 122°40'1216.7
2017-Aug-21 03:16N 29°59' E 122°50'2915.3
2017-Aug-21 01:24N 30°26' E 123°01'1316.0
2017-Aug-21 00:37N 30°39' E 122°59'816.1
2017-Aug-21 00:07N 30°45' E 122°54'2814.9
2017-Aug-20 22:14N 31°05' E 122°31'510.6
2017-Aug-20 21:48N 31°06' E 122°26'411.2
2017-Aug-20 21:27N 31°06' E 122°21'613.8
2017-Aug-20 21:00N 31°08' E 122°15'714.5
2017-Aug-20 20:30N 31°12' E 122°08'714.6
2017-Aug-20 20:00N 31°15' E 121°60'714.9
2017-Aug-20 19:30N 31°16' E 121°51'714.6
2017-Aug-20 19:01N 31°19' E 121°43'3 5.6
2017-Aug-20 18:30N 31°20' E 121°40'0 0.0
2017-Aug-20 18:01N 31°20' E 121°40'0 0.0
2017-Aug-20 17:28N 31°20' E 121°40'0 0.0
2017-Aug-20 16:58N 31°20' E 121°40'0 0.0
2017-Aug-20 16:25N 31°20' E 121°40'0 0.0
2017-Aug-20 15:58N 31°20' E 121°40'0 0.0
2017-Aug-20 15:25N 31°20' E 121°40'0 0.0
2017-Aug-20 14:58N 31°20' E 121°40'0 0.0
2017-Aug-20 14:28N 31°20' E 121°40'0 0.0
2017-Aug-20 13:59N 31°20' E 121°40'0 0.0
2017-Aug-20 13:25N 31°20' E 121°40'0 0.0
2017-Aug-20 12:58N 31°20' E 121°40'0 0.0
2017-Aug-20 12:28N 31°20' E 121°40'0 0.0
2017-Aug-20 11:58N 31°20' E 121°40'0 0.0
2017-Aug-20 11:28N 31°20' E 121°40'0 0.0
2017-Aug-20 10:58N 31°20' E 121°40'0 0.0
2017-Aug-20 10:28N 31°20' E 121°40'0 0.0
2017-Aug-20 09:58N 31°20' E 121°40'0 0.9
2017-Aug-20 09:30N 31°20' E 121°41'1 0.8
2017-Aug-20 08:52N 31°20' E 121°41'0 0.4
2017-Aug-20 08:28N 31°19' E 121°41'3 6.4
2017-Aug-20 08:00N 31°19' E 121°45'611.3
2017-Aug-20 07:28N 31°16' E 121°51'510.4
2017-Aug-20 07:00N 31°15' E 121°57'5 9.3
2017-Aug-20 06:29N 31°14' E 122°02'3 6.5
2017-Aug-20 06:00N 31°14' E 122°06'4 8.0
2017-Aug-20 05:30N 31°11' E 122°10'510.7
2017-Aug-20 05:00N 31°08' E 122°15'612.5
2017-Aug-20 04:30N 31°06' E 122°22'510.2
2017-Aug-20 04:00N 31°07' E 122°27'814.0
2017-Aug-20 03:26N 31°08' E 122°37'4 1.6
2017-Aug-20 00:39N 31°08' E 122°42'0 0.0
2017-Aug-20 00:09N 31°08' E 122°42'0 0.0
2017-Aug-19 23:57N 31°08' E 122°42'0 0.1
2017-Aug-19 23:30N 31°08' E 122°42'0 0.1
2017-Aug-19 23:00N 31°08' E 122°42'0 0.1
2017-Aug-19 19:36N 31°08' E 122°42'0 0.1
2017-Aug-19 19:30N 31°08' E 122°42'0 0.0
2017-Aug-19 17:27N 31°08' E 122°42'0 0.0
2017-Aug-19 16:00N 31°08' E 122°42'0 0.1
2017-Aug-19 15:24N 31°08' E 122°42'0 0.0
2017-Aug-19 14:57N 31°08' E 122°42'0 0.0
2017-Aug-19 13:57N 31°08' E 122°42'0 0.1
2017-Aug-19 13:30N 31°08' E 122°42'0 0.0
2017-Aug-19 12:54N 31°08' E 122°42'0 0.1
2017-Aug-19 12:21N 31°08' E 122°42'0 0.0
2017-Aug-19 11:54N 31°08' E 122°42'0 0.0
2017-Aug-19 11:27N 31°08' E 122°42'0 0.1
2017-Aug-19 11:00N 31°08' E 122°42'0 0.0
2017-Aug-19 10:30N 31°08' E 122°42'0 0.1
2017-Aug-19 10:00N 31°08' E 122°42'0 0.1
2017-Aug-19 09:18N 31°08' E 122°42'0 0.1
2017-Aug-19 08:51N 31°08' E 122°42'0 0.2
2017-Aug-19 08:30N 31°08' E 122°42'0 0.1
2017-Aug-19 08:00N 31°08' E 122°42'0 0.0
2017-Aug-19 07:24N 31°08' E 122°42'0 1.0
2017-Aug-19 07:00N 31°08' E 122°42'611.6
2017-Aug-19 06:30N 31°13' E 122°47'916.4
2017-Aug-19 05:58N 31°18' E 122°55'  
2017-Aug-14 09:08N 34°42' E 139°38'217.5
2017-Aug-14 09:00N 34°43' E 139°40'1017.7
2017-Aug-14 08:27N 34°47' E 139°51'918.0
2017-Aug-14 07:59N 34°51' E 140°00'918.2
2017-Aug-14 07:28N 34°56' E 140°09'  
Track history (hours):
 
Tides and Currents Weather Stations Pressure Air Temp Water Temp Dewpoint Dewpoint Depression Visibility Wind Speed Wind Dir Waves Ship Positions

Ina Theresa

Last reported at 2017-Aug-22 02:03 UTC. Time now 2017-Aug-23 19:38 UTC.
Position N 30°01' E 122°51'.

Length 122 m; draft 8.8 m.

Type: Ship. MMSI: 538004548.

Date/timePositionNaut miles runAvg speedWind from/ knotsBaromVisibWave heightAir tempDewpointWater temp
2017-Aug-22 02:03N 30°01' E 122°51'217.1
2017-Aug-22 01:56N 30°00' E 122°48'916.8
2017-Aug-22 01:23N 29°54' E 122°41'718.1
2017-Aug-22 00:59N 29°47' E 122°37'816.2
2017-Aug-22 00:30N 29°41' E 122°32'815.5
2017-Aug-22 00:00N 29°42' E 122°23'612.6
2017-Aug-21 23:30N 29°46' E 122°17'4 8.6
2017-Aug-21 22:59N 29°49' E 122°14'3 6.5
2017-Aug-21 22:30N 29°50' E 122°10'611.5
2017-Aug-21 22:00N 29°48' E 122°04'4 8.3
2017-Aug-21 21:30N 29°46' E 121°60'0 0.0
2017-Aug-21 20:58N 29°46' E 121°60'0 0.0
2017-Aug-21 20:23N 29°46' E 121°60'0 0.0
2017-Aug-21 19:58N 29°46' E 121°60'0 0.0
2017-Aug-21 19:28N 29°46' E 121°60'0 0.0
2017-Aug-21 18:58N 29°46' E 121°60'0 0.0
2017-Aug-21 18:28N 29°46' E 121°60'0 0.0
2017-Aug-21 17:58N 29°46' E 121°60'0 0.0
2017-Aug-21 17:22N 29°46' E 121°60'0 0.0
2017-Aug-21 16:58N 29°46' E 121°60'0 0.0
2017-Aug-21 16:28N 29°46' E 121°60'0 0.0
2017-Aug-21 15:58N 29°46' E 121°60'0 0.0
2017-Aug-21 15:13N 29°46' E 121°60'0 0.0
2017-Aug-21 14:43N 29°46' E 121°60'0 0.0
2017-Aug-21 14:28N 29°46' E 121°60'0 0.0
2017-Aug-21 13:58N 29°46' E 121°60'0 0.0
2017-Aug-21 13:25N 29°46' E 121°60'0 0.0
2017-Aug-21 12:58N 29°46' E 121°60'0 0.0
2017-Aug-21 12:28N 29°46' E 121°60'0 0.0
2017-Aug-21 11:58N 29°46' E 121°60'0 0.0
2017-Aug-21 11:28N 29°46' E 121°60'0 0.0
2017-Aug-21 10:58N 29°46' E 121°60'0 0.0
2017-Aug-21 10:28N 29°46' E 121°60'0 0.0
2017-Aug-21 09:52N 29°46' E 121°60'0 0.0
2017-Aug-21 09:28N 29°46' E 121°60'0 0.0
2017-Aug-21 08:49N 29°46' E 121°60'0 0.0
2017-Aug-21 08:13N 29°46' E 121°60'0 0.0
2017-Aug-21 07:58N 29°46' E 121°60'0 0.1
2017-Aug-21 07:30N 29°46' E 122°00'3 6.4
2017-Aug-21 07:00N 29°47' E 122°03'510.2
2017-Aug-21 06:31N 29°47' E 122°09'510.5
2017-Aug-21 06:00N 29°44' E 122°14'510.4
2017-Aug-21 05:29N 29°42' E 122°20'713.5
2017-Aug-21 05:00N 29°41' E 122°27'815.4
2017-Aug-21 04:30N 29°43' E 122°36'816.6
2017-Aug-21 04:00N 29°51' E 122°40'1216.7
2017-Aug-21 03:16N 29°59' E 122°50'2915.3
2017-Aug-21 01:24N 30°26' E 123°01'1316.0
2017-Aug-21 00:37N 30°39' E 122°59'816.1
2017-Aug-21 00:07N 30°45' E 122°54'2814.9
2017-Aug-20 22:14N 31°05' E 122°31'510.6
2017-Aug-20 21:48N 31°06' E 122°26'411.2
2017-Aug-20 21:27N 31°06' E 122°21'613.8
2017-Aug-20 21:00N 31°08' E 122°15'714.5
2017-Aug-20 20:30N 31°12' E 122°08'714.6
2017-Aug-20 20:00N 31°15' E 121°60'714.9
2017-Aug-20 19:30N 31°16' E 121°51'714.6
2017-Aug-20 19:01N 31°19' E 121°43'3 5.6
2017-Aug-20 18:30N 31°20' E 121°40'0 0.0
2017-Aug-20 18:01N 31°20' E 121°40'0 0.0
2017-Aug-20 17:28N 31°20' E 121°40'0 0.0
2017-Aug-20 16:58N 31°20' E 121°40'0 0.0
2017-Aug-20 16:25N 31°20' E 121°40'0 0.0
2017-Aug-20 15:58N 31°20' E 121°40'0 0.0
2017-Aug-20 15:25N 31°20' E 121°40'0 0.0
2017-Aug-20 14:58N 31°20' E 121°40'0 0.0
2017-Aug-20 14:28N 31°20' E 121°40'0 0.0
2017-Aug-20 13:59N 31°20' E 121°40'0 0.0
2017-Aug-20 13:25N 31°20' E 121°40'0 0.0
2017-Aug-20 12:58N 31°20' E 121°40'0 0.0
2017-Aug-20 12:28N 31°20' E 121°40'0 0.0
2017-Aug-20 11:58N 31°20' E 121°40'0 0.0
2017-Aug-20 11:28N 31°20' E 121°40'0 0.0
2017-Aug-20 10:58N 31°20' E 121°40'0 0.0
2017-Aug-20 10:28N 31°20' E 121°40'0 0.0
2017-Aug-20 09:58N 31°20' E 121°40'0 0.9
2017-Aug-20 09:30N 31°20' E 121°41'1 0.8
2017-Aug-20 08:52N 31°20' E 121°41'0 0.4
2017-Aug-20 08:28N 31°19' E 121°41'3 6.4
2017-Aug-20 08:00N 31°19' E 121°45'611.3
2017-Aug-20 07:28N 31°16' E 121°51'510.4
2017-Aug-20 07:00N 31°15' E 121°57'5 9.3
2017-Aug-20 06:29N 31°14' E 122°02'3 6.5
2017-Aug-20 06:00N 31°14' E 122°06'4 8.0
2017-Aug-20 05:30N 31°11' E 122°10'510.7
2017-Aug-20 05:00N 31°08' E 122°15'612.5
2017-Aug-20 04:30N 31°06' E 122°22'510.2
2017-Aug-20 04:00N 31°07' E 122°27'814.0
2017-Aug-20 03:26N 31°08' E 122°37'4 1.6
2017-Aug-20 00:39N 31°08' E 122°42'0 0.0
2017-Aug-20 00:09N 31°08' E 122°42'0 0.0
2017-Aug-19 23:57N 31°08' E 122°42'0 0.1
2017-Aug-19 23:30N 31°08' E 122°42'0 0.1
2017-Aug-19 23:00N 31°08' E 122°42'0 0.1
2017-Aug-19 19:36N 31°08' E 122°42'0 0.1
2017-Aug-19 19:30N 31°08' E 122°42'0 0.0
2017-Aug-19 17:27N 31°08' E 122°42'0 0.0
2017-Aug-19 16:00N 31°08' E 122°42'0 0.1
2017-Aug-19 15:24N 31°08' E 122°42'0 0.0
2017-Aug-19 14:57N 31°08' E 122°42'0 0.0
2017-Aug-19 13:57N 31°08' E 122°42'0 0.1
2017-Aug-19 13:30N 31°08' E 122°42'0 0.0
2017-Aug-19 12:54N 31°08' E 122°42'0 0.1
2017-Aug-19 12:21N 31°08' E 122°42'0 0.0
2017-Aug-19 11:54N 31°08' E 122°42'0 0.0
2017-Aug-19 11:27N 31°08' E 122°42'0 0.1
2017-Aug-19 11:00N 31°08' E 122°42'0 0.0
2017-Aug-19 10:30N 31°08' E 122°42'0 0.1
2017-Aug-19 10:00N 31°08' E 122°42'0 0.1
2017-Aug-19 09:18N 31°08' E 122°42'0 0.1
2017-Aug-19 08:51N 31°08' E 122°42'0 0.2
2017-Aug-19 08:30N 31°08' E 122°42'0 0.1
2017-Aug-19 08:00N 31°08' E 122°42'0 0.0
2017-Aug-19 07:24N 31°08' E 122°42'0 1.0
2017-Aug-19 07:00N 31°08' E 122°42'611.6
2017-Aug-19 06:30N 31°13' E 122°47'916.4
2017-Aug-19 05:58N 31°18' E 122°55'  
2017-Aug-14 09:08N 34°42' E 139°38'217.5
2017-Aug-14 09:00N 34°43' E 139°40'1017.7
2017-Aug-14 08:27N 34°47' E 139°51'918.0
2017-Aug-14 07:59N 34°51' E 140°00'918.2
2017-Aug-14 07:28N 34°56' E 140°09'  

Dump ship's entire track history